Terminal Aerodrome Forecast
Issued by NWS Quad Cities IA IL

Home | Current Version | Previous Version | Text Only | Print | Product List | Glossary On
Versions: 1 2 3 4 5 6 7 8 9 10 11 12 13 14 15 16 17 18 19 20
000
FTUS43 KDVN 112141 AAD
TAFDBQ
TAF AMD
KDBQ 112141Z 1122/1218 33012KT 1SM -SN BR OVC007
     FM112300 30012G20KT P6SM SCT008 OVC012
     FM120000 33021G30KT P6SM OVC014
     FM120600 33017G24KT P6SM BKN040=

USA.gov is the U.S. government's official web portal to all federal, state and local government web resources and services.